Darlington, Rhode Island
Current Conditions -  °F | °C
As of 5:15 AM on Friday 31 Oct 2014 (Local Time) from KSFZ Reporting Station
Overcast Overcast  
Wind Chill: 37°   Ceiling: 5000
Heat Index: 41°   Visibility: 10mi
Dew Point: 30°   Wind: 6mph
Humidity: 65%   Direction: 20°NNE
Pressure: 29.99"   Gusts: NA
Location:  41.8783°N, 71.3527°W
Report Text: KSFZ 310915Z 02005KT 10SM OVC050 05/M01 A2999 RMK AO1
Loading
Personal Weather Stations






























Interactive Weather Map
Tropical Storm Tracking
New forecast layout! Learn more

10-Day Weather Forecast

Advertisements
Track Severe Weather on mobile